sensor_id;sensor_type;location;lat;lon;timestamp;P1;durP1;ratioP1;P2;durP2;ratioP2
71773;SDS011;59607;52.130;5.430;2023-03-21T00:01:52;8.87;;;8.13;;
71773;SDS011;59607;52.130;5.430;2023-03-21T00:04:22;9.15;;;8.23;;
71773;SDS011;59607;52.130;5.430;2023-03-21T00:06:54;9.63;;;8.65;;
71773;SDS011;59607;52.130;5.430;2023-03-21T00:09:20;9.82;;;8.82;;
71773;SDS011;59607;52.130;5.430;2023-03-21T00:11:49;9.63;;;8.75;;
71773;SDS011;59607;52.130;5.430;2023-03-21T00:14:19;8.53;;;7.73;;
71773;SDS011;59607;52.130;5.430;2023-03-21T00:16:49;9.55;;;8.57;;
71773;SDS011;59607;52.130;5.430;2023-03-21T00:19:18;9.88;;;8.88;;
71773;SDS011;59607;52.130;5.430;2023-03-21T00:22:00;9.00;;;8.20;;
71773;SDS011;59607;52.130;5.430;2023-03-21T00:24:37;8.77;;;8.10;;
71773;SDS011;59607;52.130;5.430;2023-03-21T00:27:10;8.77;;;7.83;;
71773;SDS011;59607;52.130;5.430;2023-03-21T00:29:58;10.32;;;8.52;;
71773;SDS011;59607;52.130;5.430;2023-03-21T00:32:25;9.40;;;8.38;;
71773;SDS011;59607;52.130;5.430;2023-03-21T00:34:58;9.15;;;8.30;;
71773;SDS011;59607;52.130;5.430;2023-03-21T00:37:44;8.38;;;7.57;;
71773;SDS011;59607;52.130;5.430;2023-03-21T00:40:11;7.90;;;7.17;;
71773;SDS011;59607;52.130;5.430;2023-03-21T00:42:56;7.95;;;7.10;;
71773;SDS011;59607;52.130;5.430;2023-03-21T00:45:25;7.35;;;6.75;;
71773;SDS011;59607;52.130;5.430;2023-03-21T00:47:52;7.68;;;6.85;;
71773;SDS011;59607;52.130;5.430;2023-03-21T00:50:21;7.95;;;7.20;;
71773;SDS011;59607;52.130;5.430;2023-03-21T00:52:47;8.93;;;7.57;;
71773;SDS011;59607;52.130;5.430;2023-03-21T00:55:15;7.32;;;6.63;;
71773;SDS011;59607;52.130;5.430;2023-03-21T00:57:43;7.68;;;6.97;;
71773;SDS011;59607;52.130;5.430;2023-03-21T01:00:32;7.72;;;6.80;;
71773;SDS011;59607;52.130;5.430;2023-03-21T01:03:03;7.38;;;6.78;;
71773;SDS011;59607;52.130;5.430;2023-03-21T01:05:48;7.37;;;6.77;;
71773;SDS011;59607;52.130;5.430;2023-03-21T01:08:45;8.02;;;7.30;;
71773;SDS011;59607;52.130;5.430;2023-03-21T01:11:19;8.52;;;7.82;;
71773;SDS011;59607;52.130;5.430;2023-03-21T01:13:48;10.13;;;9.18;;
71773;SDS011;59607;52.130;5.430;2023-03-21T01:16:32;9.48;;;8.43;;
71773;SDS011;59607;52.130;5.430;2023-03-21T01:19:05;10.10;;;9.20;;
71773;SDS011;59607;52.130;5.430;2023-03-21T01:21:47;11.88;;;9.35;;
71773;SDS011;59607;52.130;5.430;2023-03-21T01:24:13;10.57;;;9.57;;
71773;SDS011;59607;52.130;5.430;2023-03-21T01:26:40;10.80;;;9.75;;
71773;SDS011;59607;52.130;5.430;2023-03-21T01:29:12;10.77;;;9.77;;
71773;SDS011;59607;52.130;5.430;2023-03-21T01:31:39;11.37;;;9.53;;
71773;SDS011;59607;52.130;5.430;2023-03-21T01:34:10;12.02;;;9.82;;
71773;SDS011;59607;52.130;5.430;2023-03-21T01:36:37;9.30;;;8.50;;
71773;SDS011;59607;52.130;5.430;2023-03-21T01:39:04;12.07;;;9.77;;
71773;SDS011;59607;52.130;5.430;2023-03-21T01:41:40;12.13;;;10.05;;
71773;SDS011;59607;52.130;5.430;2023-03-21T01:44:13;11.93;;;10.63;;
71773;SDS011;59607;52.130;5.430;2023-03-21T01:46:48;11.63;;;9.98;;
71773;SDS011;59607;52.130;5.430;2023-03-21T01:49:37;14.30;;;10.60;;
71773;SDS011;59607;52.130;5.430;2023-03-21T01:52:11;16.30;;;11.50;;
71773;SDS011;59607;52.130;5.430;2023-03-21T01:55:08;12.07;;;10.82;;
71773;SDS011;59607;52.130;5.430;2023-03-21T01:57:52;14.27;;;11.13;;
71773;SDS011;59607;52.130;5.430;2023-03-21T02:00:32;14.82;;;12.15;;
71773;SDS011;59607;52.130;5.430;2023-03-21T02:03:13;15.43;;;13.27;;
71773;SDS011;59607;52.130;5.430;2023-03-21T02:06:00;12.82;;;11.25;;
71773;SDS011;59607;52.130;5.430;2023-03-21T02:08:37;14.90;;;12.60;;
71773;SDS011;59607;52.130;5.430;2023-03-21T02:11:07;16.50;;;12.80;;
71773;SDS011;59607;52.130;5.430;2023-03-21T02:13:37;15.00;;;12.65;;
71773;SDS011;59607;52.130;5.430;2023-03-21T02:28:05;15.52;;;12.30;;
71773;SDS011;59607;52.130;5.430;2023-03-21T02:45:56;15.93;;;12.40;;
71773;SDS011;59607;52.130;5.430;2023-03-21T02:48:31;15.70;;;11.57;;
71773;SDS011;59607;52.130;5.430;2023-03-21T02:51:16;17.15;;;12.43;;
71773;SDS011;59607;52.130;5.430;2023-03-21T02:53:49;19.40;;;11.77;;
71773;SDS011;59607;52.130;5.430;2023-03-21T02:56:44;18.27;;;12.52;;
71773;SDS011;59607;52.130;5.430;2023-03-21T02:59:18;19.35;;;12.30;;
71773;SDS011;59607;52.130;5.430;2023-03-21T03:01:53;16.00;;;12.18;;
71773;SDS011;59607;52.130;5.430;2023-03-21T03:04:25;20.92;;;12.80;;
71773;SDS011;59607;52.130;5.430;2023-03-21T03:15:23;18.50;;;11.40;;
71773;SDS011;59607;52.130;5.430;2023-03-21T03:20:43;16.80;;;11.50;;
71773;SDS011;59607;52.130;5.430;2023-03-21T03:23:51;15.77;;;11.13;;
71773;SDS011;59607;52.130;5.430;2023-03-21T03:29:09;14.93;;;11.15;;
71773;SDS011;59607;52.130;5.430;2023-03-21T03:32:09;20.27;;;11.07;;
71773;SDS011;59607;52.130;5.430;2023-03-21T03:35:00;15.03;;;10.93;;
71773;SDS011;59607;52.130;5.430;2023-03-21T03:37:37;15.10;;;10.98;;
71773;SDS011;59607;52.130;5.430;2023-03-21T03:42:51;17.90;;;11.05;;
71773;SDS011;59607;52.130;5.430;2023-03-21T03:45:24;17.13;;;11.73;;
71773;SDS011;59607;52.130;5.430;2023-03-21T03:50:49;15.95;;;12.18;;
71773;SDS011;59607;52.130;5.430;2023-03-21T03:53:42;24.65;;;12.20;;
71773;SDS011;59607;52.130;5.430;2023-03-21T03:56:50;14.10;;;11.43;;
71773;SDS011;59607;52.130;5.430;2023-03-21T03:59:16;13.30;;;11.18;;
71773;SDS011;59607;52.130;5.430;2023-03-21T04:01:47;16.93;;;11.77;;
71773;SDS011;59607;52.130;5.430;2023-03-21T04:04:16;19.63;;;11.63;;
71773;SDS011;59607;52.130;5.430;2023-03-21T04:06:43;18.00;;;12.80;;
71773;SDS011;59607;52.130;5.430;2023-03-21T04:09:20;18.77;;;11.77;;
71773;SDS011;59607;52.130;5.430;2023-03-21T04:12:02;19.05;;;12.38;;
71773;SDS011;59607;52.130;5.430;2023-03-21T04:14:37;16.93;;;11.97;;
71773;SDS011;59607;52.130;5.430;2023-03-21T04:17:11;17.00;;;11.77;;
71773;SDS011;59607;52.130;5.430;2023-03-21T04:19:46;20.55;;;12.70;;
71773;SDS011;59607;52.130;5.430;2023-03-21T04:22:22;17.80;;;11.40;;
71773;SDS011;59607;52.130;5.430;2023-03-21T04:24:48;18.02;;;12.07;;
71773;SDS011;59607;52.130;5.430;2023-03-21T04:27:15;17.40;;;12.10;;
71773;SDS011;59607;52.130;5.430;2023-03-21T04:29:47;17.55;;;11.77;;
71773;SDS011;59607;52.130;5.430;2023-03-21T04:32:14;16.58;;;11.48;;
71773;SDS011;59607;52.130;5.430;2023-03-21T04:34:51;18.88;;;11.02;;
71773;SDS011;59607;52.130;5.430;2023-03-21T04:37:22;19.55;;;12.50;;
71773;SDS011;59607;52.130;5.430;2023-03-21T04:39:57;14.57;;;11.50;;
71773;SDS011;59607;52.130;5.430;2023-03-21T04:42:32;18.15;;;11.63;;
71773;SDS011;59607;52.130;5.430;2023-03-21T04:45:00;17.75;;;12.85;;
71773;SDS011;59607;52.130;5.430;2023-03-21T04:47:29;23.23;;;12.80;;
71773;SDS011;59607;52.130;5.430;2023-03-21T04:49:56;17.60;;;12.57;;
71773;SDS011;59607;52.130;5.430;2023-03-21T04:52:22;24.03;;;11.97;;
71773;SDS011;59607;52.130;5.430;2023-03-21T04:54:50;17.60;;;11.73;;
71773;SDS011;59607;52.130;5.430;2023-03-21T04:57:22;19.15;;;12.32;;
71773;SDS011;59607;52.130;5.430;2023-03-21T04:59:48;19.73;;;11.95;;
71773;SDS011;59607;52.130;5.430;2023-03-21T05:02:23;23.83;;;11.90;;
71773;SDS011;59607;52.130;5.430;2023-03-21T05:04:49;16.80;;;11.83;;
71773;SDS011;59607;52.130;5.430;2023-03-21T05:07:16;19.08;;;11.25;;
71773;SDS011;59607;52.130;5.430;2023-03-21T05:09:42;21.60;;;11.32;;
71773;SDS011;59607;52.130;5.430;2023-03-21T05:12:09;14.60;;;10.50;;
71773;SDS011;59607;52.130;5.430;2023-03-21T05:14:35;19.25;;;10.30;;
71773;SDS011;59607;52.130;5.430;2023-03-21T05:17:01;17.70;;;10.13;;
71773;SDS011;59607;52.130;5.430;2023-03-21T05:19:34;15.05;;;9.77;;
71773;SDS011;59607;52.130;5.430;2023-03-21T05:22:10;14.60;;;8.82;;
71773;SDS011;59607;52.130;5.430;2023-03-21T05:24:40;12.70;;;9.02;;
71773;SDS011;59607;52.130;5.430;2023-03-21T05:27:07;18.67;;;9.65;;
71773;SDS011;59607;52.130;5.430;2023-03-21T05:29:47;17.40;;;9.23;;
71773;SDS011;59607;52.130;5.430;2023-03-21T05:32:15;14.40;;;8.60;;
71773;SDS011;59607;52.130;5.430;2023-03-21T05:34:44;18.75;;;8.60;;
71773;SDS011;59607;52.130;5.430;2023-03-21T05:37:10;13.65;;;9.05;;
71773;SDS011;59607;52.130;5.430;2023-03-21T05:39:43;11.27;;;7.85;;
71773;SDS011;59607;52.130;5.430;2023-03-21T05:42:09;16.67;;;9.13;;
71773;SDS011;59607;52.130;5.430;2023-03-21T05:44:36;16.15;;;8.10;;
71773;SDS011;59607;52.130;5.430;2023-03-21T05:47:16;18.67;;;7.88;;
71773;SDS011;59607;52.130;5.430;2023-03-21T05:49:49;15.02;;;8.07;;
71773;SDS011;59607;52.130;5.430;2023-03-21T05:52:16;12.90;;;7.50;;
71773;SDS011;59607;52.130;5.430;2023-03-21T05:54:51;11.13;;;7.20;;
71773;SDS011;59607;52.130;5.430;2023-03-21T05:57:17;11.55;;;7.22;;
71773;SDS011;59607;52.130;5.430;2023-03-21T05:59:44;11.35;;;7.95;;
71773;SDS011;59607;52.130;5.430;2023-03-21T06:02:15;8.05;;;6.53;;
71773;SDS011;59607;52.130;5.430;2023-03-21T06:04:42;14.15;;;6.82;;
71773;SDS011;59607;52.130;5.430;2023-03-21T06:07:08;9.70;;;6.93;;
71773;SDS011;59607;52.130;5.430;2023-03-21T06:09:41;12.27;;;7.10;;
71773;SDS011;59607;52.130;5.430;2023-03-21T06:12:11;10.80;;;7.28;;
71773;SDS011;59607;52.130;5.430;2023-03-21T06:14:44;9.48;;;7.15;;
71773;SDS011;59607;52.130;5.430;2023-03-21T06:17:10;16.50;;;7.78;;
71773;SDS011;59607;52.130;5.430;2023-03-21T06:19:47;14.53;;;7.83;;
71773;SDS011;59607;52.130;5.430;2023-03-21T06:22:15;15.98;;;6.60;;
71773;SDS011;59607;52.130;5.430;2023-03-21T06:24:55;10.88;;;6.95;;
71773;SDS011;59607;52.130;5.430;2023-03-21T06:27:24;11.35;;;7.22;;
71773;SDS011;59607;52.130;5.430;2023-03-21T06:29:50;16.10;;;7.05;;
71773;SDS011;59607;52.130;5.430;2023-03-21T06:32:17;13.93;;;6.73;;
71773;SDS011;59607;52.130;5.430;2023-03-21T06:34:49;12.10;;;7.07;;
71773;SDS011;59607;52.130;5.430;2023-03-21T06:37:18;13.73;;;7.85;;
71773;SDS011;59607;52.130;5.430;2023-03-21T06:39:44;14.05;;;6.55;;
71773;SDS011;59607;52.130;5.430;2023-03-21T06:42:17;10.27;;;5.88;;
71773;SDS011;59607;52.130;5.430;2023-03-21T06:44:44;14.03;;;6.07;;
71773;SDS011;59607;52.130;5.430;2023-03-21T06:47:10;10.65;;;6.53;;
71773;SDS011;59607;52.130;5.430;2023-03-21T06:49:37;8.40;;;5.90;;
71773;SDS011;59607;52.130;5.430;2023-03-21T06:52:06;7.75;;;5.63;;
71773;SDS011;59607;52.130;5.430;2023-03-21T06:54:35;9.18;;;6.38;;
71773;SDS011;59607;52.130;5.430;2023-03-21T06:57:04;10.00;;;6.17;;
71773;SDS011;59607;52.130;5.430;2023-03-21T06:59:31;8.23;;;5.55;;
71773;SDS011;59607;52.130;5.430;2023-03-21T07:01:58;10.55;;;6.03;;
71773;SDS011;59607;52.130;5.430;2023-03-21T07:04:41;11.70;;;6.05;;
71773;SDS011;59607;52.130;5.430;2023-03-21T07:07:11;8.10;;;5.90;;
71773;SDS011;59607;52.130;5.430;2023-03-21T07:09:37;8.40;;;5.20;;
71773;SDS011;59607;52.130;5.430;2023-03-21T07:12:08;7.78;;;5.15;;
71773;SDS011;59607;52.130;5.430;2023-03-21T07:14:39;8.32;;;5.47;;
71773;SDS011;59607;52.130;5.430;2023-03-21T07:17:06;13.13;;;5.80;;
71773;SDS011;59607;52.130;5.430;2023-03-21T07:19:39;10.35;;;5.90;;
71773;SDS011;59607;52.130;5.430;2023-03-21T07:22:07;9.87;;;5.10;;
71773;SDS011;59607;52.130;5.430;2023-03-21T07:24:37;10.00;;;5.53;;
71773;SDS011;59607;52.130;5.430;2023-03-21T07:27:06;7.65;;;5.30;;
71773;SDS011;59607;52.130;5.430;2023-03-21T07:29:33;9.20;;;5.50;;
71773;SDS011;59607;52.130;5.430;2023-03-21T07:32:05;9.25;;;5.35;;
71773;SDS011;59607;52.130;5.430;2023-03-21T07:34:32;9.77;;;5.30;;
71773;SDS011;59607;52.130;5.430;2023-03-21T07:37:14;9.50;;;5.63;;
71773;SDS011;59607;52.130;5.430;2023-03-21T07:39:55;9.77;;;5.25;;
71773;SDS011;59607;52.130;5.430;2023-03-21T07:42:31;13.23;;;5.13;;
71773;SDS011;59607;52.130;5.430;2023-03-21T07:44:58;12.45;;;4.93;;
71773;SDS011;59607;52.130;5.430;2023-03-21T07:47:25;8.53;;;5.07;;
71773;SDS011;59607;52.130;5.430;2023-03-21T07:49:54;10.00;;;4.75;;
71773;SDS011;59607;52.130;5.430;2023-03-21T07:52:21;8.48;;;5.43;;
71773;SDS011;59607;52.130;5.430;2023-03-21T07:54:47;10.48;;;5.13;;
71773;SDS011;59607;52.130;5.430;2023-03-21T07:57:19;11.35;;;5.07;;
71773;SDS011;59607;52.130;5.430;2023-03-21T07:59:45;14.00;;;5.40;;
71773;SDS011;59607;52.130;5.430;2023-03-21T08:02:20;9.52;;;5.53;;
71773;SDS011;59607;52.130;5.430;2023-03-21T08:04:47;8.20;;;5.10;;
71773;SDS011;59607;52.130;5.430;2023-03-21T08:07:13;8.73;;;5.00;;
71773;SDS011;59607;52.130;5.430;2023-03-21T08:09:46;9.13;;;4.78;;
71773;SDS011;59607;52.130;5.430;2023-03-21T08:12:12;9.60;;;5.40;;
71773;SDS011;59607;52.130;5.430;2023-03-21T08:14:53;9.35;;;4.88;;
71773;SDS011;59607;52.130;5.430;2023-03-21T08:17:22;9.38;;;5.10;;
71773;SDS011;59607;52.130;5.430;2023-03-21T08:19:51;12.43;;;4.85;;
71773;SDS011;59607;52.130;5.430;2023-03-21T08:22:18;9.85;;;4.97;;
71773;SDS011;59607;52.130;5.430;2023-03-21T08:24:54;8.80;;;4.50;;
71773;SDS011;59607;52.130;5.430;2023-03-21T08:27:21;11.23;;;5.75;;
71773;SDS011;59607;52.130;5.430;2023-03-21T08:29:56;8.80;;;4.45;;
71773;SDS011;59607;52.130;5.430;2023-03-21T08:32:23;9.35;;;4.40;;
71773;SDS011;59607;52.130;5.430;2023-03-21T08:35:04;9.05;;;4.68;;
71773;SDS011;59607;52.130;5.430;2023-03-21T08:37:40;7.73;;;5.03;;
71773;SDS011;59607;52.130;5.430;2023-03-21T08:40:12;10.73;;;4.82;;
71773;SDS011;59607;52.130;5.430;2023-03-21T08:42:43;7.53;;;4.78;;
71773;SDS011;59607;52.130;5.430;2023-03-21T08:45:15;8.05;;;4.68;;
71773;SDS011;59607;52.130;5.430;2023-03-21T08:47:45;9.98;;;4.97;;
71773;SDS011;59607;52.130;5.430;2023-03-21T08:50:14;8.10;;;4.30;;
71773;SDS011;59607;52.130;5.430;2023-03-21T08:52:52;5.75;;;4.22;;
71773;SDS011;59607;52.130;5.430;2023-03-21T08:55:18;8.70;;;4.20;;
71773;SDS011;59607;52.130;5.430;2023-03-21T08:57:54;7.97;;;4.32;;
71773;SDS011;59607;52.130;5.430;2023-03-21T09:00:27;10.93;;;3.63;;
71773;SDS011;59607;52.130;5.430;2023-03-21T09:02:57;4.73;;;3.30;;
71773;SDS011;59607;52.130;5.430;2023-03-21T09:05:30;8.65;;;4.07;;
71773;SDS011;59607;52.130;5.430;2023-03-21T09:08:04;6.10;;;3.60;;
71773;SDS011;59607;52.130;5.430;2023-03-21T09:10:38;7.43;;;3.70;;
71773;SDS011;59607;52.130;5.430;2023-03-21T09:13:05;5.22;;;3.60;;
71773;SDS011;59607;52.130;5.430;2023-03-21T09:15:31;7.80;;;3.30;;
71773;SDS011;59607;52.130;5.430;2023-03-21T09:18:01;7.43;;;3.67;;
71773;SDS011;59607;52.130;5.430;2023-03-21T09:20:44;8.43;;;3.50;;
71773;SDS011;59607;52.130;5.430;2023-03-21T09:23:12;9.10;;;3.72;;
71773;SDS011;59607;52.130;5.430;2023-03-21T09:25:41;7.88;;;3.88;;
71773;SDS011;59607;52.130;5.430;2023-03-21T09:28:11;7.10;;;3.50;;
71773;SDS011;59607;52.130;5.430;2023-03-21T09:30:39;5.65;;;3.20;;
71773;SDS011;59607;52.130;5.430;2023-03-21T09:33:09;9.05;;;3.50;;
71773;SDS011;59607;52.130;5.430;2023-03-21T09:35:52;6.57;;;2.97;;
71773;SDS011;59607;52.130;5.430;2023-03-21T09:38:18;6.65;;;3.05;;
71773;SDS011;59607;52.130;5.430;2023-03-21T09:46:54;9.55;;;3.33;;
71773;SDS011;59607;52.130;5.430;2023-03-21T09:49:37;7.38;;;3.67;;
71773;SDS011;59607;52.130;5.430;2023-03-21T09:52:14;5.28;;;3.33;;
71773;SDS011;59607;52.130;5.430;2023-03-21T09:55:01;6.20;;;3.60;;
71773;SDS011;59607;52.130;5.430;2023-03-21T09:57:40;6.90;;;3.60;;
71773;SDS011;59607;52.130;5.430;2023-03-21T10:00:11;10.20;;;4.00;;
71773;SDS011;59607;52.130;5.430;2023-03-21T10:02:51;7.00;;;3.92;;
71773;SDS011;59607;52.130;5.430;2023-03-21T10:05:35;8.85;;;3.58;;
71773;SDS011;59607;52.130;5.430;2023-03-21T10:08:13;7.03;;;3.50;;
71773;SDS011;59607;52.130;5.430;2023-03-21T10:11:05;5.88;;;3.50;;
71773;SDS011;59607;52.130;5.430;2023-03-21T10:13:39;7.38;;;3.20;;
71773;SDS011;59607;52.130;5.430;2023-03-21T10:16:22;11.13;;;3.95;;
71773;SDS011;59607;52.130;5.430;2023-03-21T10:19:06;6.97;;;3.80;;
71773;SDS011;59607;52.130;5.430;2023-03-21T10:21:40;5.40;;;3.50;;
71773;SDS011;59607;52.130;5.430;2023-03-21T10:24:26;6.40;;;4.18;;
71773;SDS011;59607;52.130;5.430;2023-03-21T10:27:08;8.18;;;4.10;;
71773;SDS011;59607;52.130;5.430;2023-03-21T10:29:41;6.10;;;3.13;;
71773;SDS011;59607;52.130;5.430;2023-03-21T10:32:13;8.63;;;3.88;;
71773;SDS011;59607;52.130;5.430;2023-03-21T10:34:44;8.87;;;3.80;;
71773;SDS011;59607;52.130;5.430;2023-03-21T10:37:40;10.65;;;4.22;;
71773;SDS011;59607;52.130;5.430;2023-03-21T10:40:18;5.78;;;3.90;;
71773;SDS011;59607;52.130;5.430;2023-03-21T10:46:38;4.95;;;3.45;;
71773;SDS011;59607;52.130;5.430;2023-03-21T10:49:13;7.43;;;3.40;;
71773;SDS011;59607;52.130;5.430;2023-03-21T10:51:40;11.45;;;3.63;;
71773;SDS011;59607;52.130;5.430;2023-03-21T10:54:31;5.90;;;3.65;;
71773;SDS011;59607;52.130;5.430;2023-03-21T10:57:20;6.90;;;3.28;;
71773;SDS011;59607;52.130;5.430;2023-03-21T10:59:59;4.10;;;3.00;;
71773;SDS011;59607;52.130;5.430;2023-03-21T11:02:30;3.87;;;2.57;;
71773;SDS011;59607;52.130;5.430;2023-03-21T11:05:03;10.90;;;3.30;;
71773;SDS011;59607;52.130;5.430;2023-03-21T11:07:35;6.30;;;3.40;;
71773;SDS011;59607;52.130;5.430;2023-03-21T11:10:26;4.93;;;2.70;;
71773;SDS011;59607;52.130;5.430;2023-03-21T11:13:01;6.57;;;2.80;;
71773;SDS011;59607;52.130;5.430;2023-03-21T11:15:54;7.13;;;3.53;;
71773;SDS011;59607;52.130;5.430;2023-03-21T11:18:56;5.95;;;3.25;;
71773;SDS011;59607;52.130;5.430;2023-03-21T11:21:34;7.50;;;3.70;;
71773;SDS011;59607;52.130;5.430;2023-03-21T11:24:04;9.25;;;3.20;;
71773;SDS011;59607;52.130;5.430;2023-03-21T11:26:36;6.20;;;3.47;;
71773;SDS011;59607;52.130;5.430;2023-03-21T11:29:10;4.63;;;3.27;;
71773;SDS011;59607;52.130;5.430;2023-03-21T11:32:01;6.22;;;3.15;;
71773;SDS011;59607;52.130;5.430;2023-03-21T11:34:58;5.95;;;3.13;;
71773;SDS011;59607;52.130;5.430;2023-03-21T11:37:45;4.80;;;2.85;;
71773;SDS011;59607;52.130;5.430;2023-03-21T11:40:19;5.00;;;2.83;;
71773;SDS011;59607;52.130;5.430;2023-03-21T11:48:39;7.90;;;3.20;;
71773;SDS011;59607;52.130;5.430;2023-03-21T11:53:58;6.00;;;3.13;;
71773;SDS011;59607;52.130;5.430;2023-03-21T11:56:58;5.23;;;2.83;;
71773;SDS011;59607;52.130;5.430;2023-03-21T12:16:59;5.95;;;3.25;;
71773;SDS011;59607;52.130;5.430;2023-03-21T12:22:32;5.28;;;3.17;;
71773;SDS011;59607;52.130;5.430;2023-03-21T12:25:46;3.97;;;2.93;;
71773;SDS011;59607;52.130;5.430;2023-03-21T12:39:27;6.70;;;3.83;;
71773;SDS011;59607;52.130;5.430;2023-03-21T12:44:40;4.68;;;3.17;;
71773;SDS011;59607;52.130;5.430;2023-03-21T12:47:25;8.10;;;3.30;;
71773;SDS011;59607;52.130;5.430;2023-03-21T12:53:00;8.23;;;4.10;;
71773;SDS011;59607;52.130;5.430;2023-03-21T12:55:47;11.90;;;4.30;;
71773;SDS011;59607;52.130;5.430;2023-03-21T12:58:21;7.63;;;4.05;;
71773;SDS011;59607;52.130;5.430;2023-03-21T13:00:54;7.30;;;4.00;;
71773;SDS011;59607;52.130;5.430;2023-03-21T13:04:12;4.47;;;3.83;;
71773;SDS011;59607;52.130;5.430;2023-03-21T13:06:35;4.77;;;3.70;;
71773;SDS011;59607;52.130;5.430;2023-03-21T13:09:11;6.45;;;3.70;;
71773;SDS011;59607;52.130;5.430;2023-03-21T13:23:54;6.20;;;3.80;;
71773;SDS011;59607;52.130;5.430;2023-03-21T13:26:33;4.30;;;3.90;;
71773;SDS011;59607;52.130;5.430;2023-03-21T13:29:13;3.78;;;3.47;;
71773;SDS011;59607;52.130;5.430;2023-03-21T13:31:48;8.73;;;4.47;;
71773;SDS011;59607;52.130;5.430;2023-03-21T13:34:21;9.33;;;4.47;;
71773;SDS011;59607;52.130;5.430;2023-03-21T13:36:51;7.32;;;4.10;;
71773;SDS011;59607;52.130;5.430;2023-03-21T13:39:25;9.75;;;4.63;;
71773;SDS011;59607;52.130;5.430;2023-03-21T13:41:54;6.32;;;4.45;;
71773;SDS011;59607;52.130;5.430;2023-03-21T13:44:43;6.65;;;4.63;;
71773;SDS011;59607;52.130;5.430;2023-03-21T13:52:48;5.90;;;4.35;;
71773;SDS011;59607;52.130;5.430;2023-03-21T13:55:39;5.65;;;3.85;;
71773;SDS011;59607;52.130;5.430;2023-03-21T14:01:31;3.90;;;3.23;;
71773;SDS011;59607;52.130;5.430;2023-03-21T14:04:11;5.18;;;3.80;;
71773;SDS011;59607;52.130;5.430;2023-03-21T14:06:58;8.00;;;3.75;;
71773;SDS011;59607;52.130;5.430;2023-03-21T14:09:31;7.20;;;4.05;;
71773;SDS011;59607;52.130;5.430;2023-03-21T14:12:10;6.45;;;4.22;;
71773;SDS011;59607;52.130;5.430;2023-03-21T14:14:45;4.90;;;3.80;;
71773;SDS011;59607;52.130;5.430;2023-03-21T14:17:26;9.13;;;4.38;;
71773;SDS011;59607;52.130;5.430;2023-03-21T14:20:02;5.45;;;4.70;;
71773;SDS011;59607;52.130;5.430;2023-03-21T14:22:40;7.93;;;4.32;;
71773;SDS011;59607;52.130;5.430;2023-03-21T14:25:11;9.35;;;4.50;;
71773;SDS011;59607;52.130;5.430;2023-03-21T14:27:40;6.90;;;4.50;;
71773;SDS011;59607;52.130;5.430;2023-03-21T14:30:20;6.80;;;3.95;;
71773;SDS011;59607;52.130;5.430;2023-03-21T14:32:57;5.80;;;4.60;;
71773;SDS011;59607;52.130;5.430;2023-03-21T14:35:29;7.43;;;4.40;;
71773;SDS011;59607;52.130;5.430;2023-03-21T14:38:02;5.10;;;4.65;;
71773;SDS011;59607;52.130;5.430;2023-03-21T14:40:45;4.17;;;3.77;;
71773;SDS011;59607;52.130;5.430;2023-03-21T14:43:13;10.93;;;4.38;;
71773;SDS011;59607;52.130;5.430;2023-03-21T14:45:42;5.00;;;4.40;;
71773;SDS011;59607;52.130;5.430;2023-03-21T14:48:20;6.15;;;4.22;;
71773;SDS011;59607;52.130;5.430;2023-03-21T14:51:11;7.53;;;4.47;;
71773;SDS011;59607;52.130;5.430;2023-03-21T14:53:39;5.50;;;3.90;;
71773;SDS011;59607;52.130;5.430;2023-03-21T14:56:11;5.65;;;4.25;;
71773;SDS011;59607;52.130;5.430;2023-03-21T14:58:47;8.00;;;4.53;;
71773;SDS011;59607;52.130;5.430;2023-03-21T15:01:15;6.43;;;4.00;;
71773;SDS011;59607;52.130;5.430;2023-03-21T15:03:57;6.43;;;4.13;;
71773;SDS011;59607;52.130;5.430;2023-03-21T15:06:29;5.97;;;4.17;;
71773;SDS011;59607;52.130;5.430;2023-03-21T15:08:57;6.57;;;4.80;;
71773;SDS011;59607;52.130;5.430;2023-03-21T15:11:34;5.30;;;4.40;;
71773;SDS011;59607;52.130;5.430;2023-03-21T15:14:07;6.78;;;4.72;;
71773;SDS011;59607;52.130;5.430;2023-03-21T15:16:41;6.65;;;4.28;;
71773;SDS011;59607;52.130;5.430;2023-03-21T15:19:09;4.77;;;4.30;;
71773;SDS011;59607;52.130;5.430;2023-03-21T15:21:47;5.68;;;4.30;;
71773;SDS011;59607;52.130;5.430;2023-03-21T15:24:26;6.00;;;4.72;;
71773;SDS011;59607;52.130;5.430;2023-03-21T15:27:03;7.78;;;4.63;;
71773;SDS011;59607;52.130;5.430;2023-03-21T15:29:34;5.45;;;4.75;;
71773;SDS011;59607;52.130;5.430;2023-03-21T15:32:18;8.33;;;4.50;;
71773;SDS011;59607;52.130;5.430;2023-03-21T15:34:52;6.45;;;4.63;;
71773;SDS011;59607;52.130;5.430;2023-03-21T15:37:27;6.45;;;4.57;;
71773;SDS011;59607;52.130;5.430;2023-03-21T15:40:15;5.25;;;4.47;;
71773;SDS011;59607;52.130;5.430;2023-03-21T15:43:13;5.47;;;4.80;;
71773;SDS011;59607;52.130;5.430;2023-03-21T15:45:52;5.77;;;4.53;;
71773;SDS011;59607;52.130;5.430;2023-03-21T15:48:29;7.38;;;5.05;;
71773;SDS011;59607;52.130;5.430;2023-03-21T15:51:04;6.03;;;4.40;;
71773;SDS011;59607;52.130;5.430;2023-03-21T15:53:57;4.85;;;4.45;;
71773;SDS011;59607;52.130;5.430;2023-03-21T15:56:23;5.88;;;4.85;;
71773;SDS011;59607;52.130;5.430;2023-03-21T15:59:15;8.27;;;4.33;;
71773;SDS011;59607;52.130;5.430;2023-03-21T16:01:46;7.65;;;5.45;;
71773;SDS011;59607;52.130;5.430;2023-03-21T16:04:17;6.88;;;5.00;;
71773;SDS011;59607;52.130;5.430;2023-03-21T16:07:00;6.75;;;4.40;;
71773;SDS011;59607;52.130;5.430;2023-03-21T16:09:41;8.38;;;5.00;;
71773;SDS011;59607;52.130;5.430;2023-03-21T16:12:12;5.37;;;4.70;;
71773;SDS011;59607;52.130;5.430;2023-03-21T16:14:47;9.65;;;4.68;;
71773;SDS011;59607;52.130;5.430;2023-03-21T16:17:33;8.00;;;5.00;;
71773;SDS011;59607;52.130;5.430;2023-03-21T16:20:11;6.03;;;4.53;;
71773;SDS011;59607;52.130;5.430;2023-03-21T16:22:51;5.70;;;5.18;;
71773;SDS011;59607;52.130;5.430;2023-03-21T16:25:18;10.10;;;4.77;;
71773;SDS011;59607;52.130;5.430;2023-03-21T16:27:54;5.82;;;4.75;;
71773;SDS011;59607;52.130;5.430;2023-03-21T16:30:20;6.80;;;5.28;;
71773;SDS011;59607;52.130;5.430;2023-03-21T16:32:50;5.53;;;4.35;;
71773;SDS011;59607;52.130;5.430;2023-03-21T16:35:23;7.00;;;5.00;;
71773;SDS011;59607;52.130;5.430;2023-03-21T16:37:53;6.50;;;5.27;;
71773;SDS011;59607;52.130;5.430;2023-03-21T16:40:27;7.50;;;6.00;;
71773;SDS011;59607;52.130;5.430;2023-03-21T16:43:02;7.22;;;5.78;;
71773;SDS011;59607;52.130;5.430;2023-03-21T16:45:28;6.50;;;5.10;;
71773;SDS011;59607;52.130;5.430;2023-03-21T16:47:59;7.60;;;5.55;;
71773;SDS011;59607;52.130;5.430;2023-03-21T16:50:27;7.47;;;4.23;;
71773;SDS011;59607;52.130;5.430;2023-03-21T16:53:02;5.95;;;4.75;;
71773;SDS011;59607;52.130;5.430;2023-03-21T16:55:29;11.07;;;4.82;;
71773;SDS011;59607;52.130;5.430;2023-03-21T16:57:58;6.20;;;4.55;;
71773;SDS011;59607;52.130;5.430;2023-03-21T17:00:40;6.90;;;4.25;;
71773;SDS011;59607;52.130;5.430;2023-03-21T17:03:23;4.00;;;3.60;;
71773;SDS011;59607;52.130;5.430;2023-03-21T17:05:55;3.97;;;3.58;;
71773;SDS011;59607;52.130;5.430;2023-03-21T17:08:21;5.00;;;3.22;;
71773;SDS011;59607;52.130;5.430;2023-03-21T17:10:49;4.65;;;3.25;;
71773;SDS011;59607;52.130;5.430;2023-03-21T17:13:24;4.03;;;3.63;;
71773;SDS011;59607;52.130;5.430;2023-03-21T17:15:51;7.00;;;3.53;;
71773;SDS011;59607;52.130;5.430;2023-03-21T17:18:24;5.88;;;3.47;;
71773;SDS011;59607;52.130;5.430;2023-03-21T17:20:52;5.57;;;3.75;;
71773;SDS011;59607;52.130;5.430;2023-03-21T17:23:19;6.68;;;4.13;;
71773;SDS011;59607;52.130;5.430;2023-03-21T17:25:45;4.10;;;3.80;;
71773;SDS011;59607;52.130;5.430;2023-03-21T17:28:12;4.33;;;3.93;;